Time;durP1;ratioP1;P1;durP2;ratioP2;P2;SDS_P1;SDS_P2;PMS_P1;PMS_P2;Temp;Humidity;BMP_temperature;BMP_pressure;BME280_temperature;BME280_humidity;BME280_pressure;Samples;Min_cycle;Max_cycle;Signal;HPM_P1;HPM_P2
2022/03/22 00:00:06;;;;;;;43.28;30.35;;;8.40;84.80;;;;;;6093651;23;101781;-73
2022/03/22 00:02:38;;;;;;;43.45;30.70;;;8.30;84.90;;;;;;6120749;23;99298;-73
2022/03/22 00:05:05;;;;;;;45.97;30.73;;;8.30;85.30;;;;;;6095217;23;98515;-74
2022/03/22 00:07:34;;;;;;;46.08;31.80;;;8.30;85.60;;;;;;6094494;23;99303;-73
2022/03/22 00:10:01;;;;;;;42.67;30.67;;;8.30;86.00;;;;;;6120736;23;99066;-73
2022/03/22 00:12:28;;;;;;;42.92;30.17;;;8.20;86.30;;;;;;6121277;23;98944;-73
2022/03/22 00:14:56;;;;;;;46.20;32.40;;;8.20;86.30;;;;;;6120923;23;98466;-73
2022/03/22 00:17:44;;;;;;;45.17;29.75;;;8.20;86.30;;;;;;6120348;23;98948;-73
2022/03/22 00:20:11;;;;;;;43.65;31.92;;;8.20;86.50;;;;;;6095290;23;99087;-73
2022/03/22 00:22:39;;;;;;;50.25;31.42;;;8.10;86.90;;;;;;6094835;23;98499;-73
2022/03/22 00:25:08;;;;;;;44.40;29.90;;;8.10;87.00;;;;;;6094598;23;98464;-73
2022/03/22 00:27:55;;;;;;;49.80;33.33;;;8.10;87.10;;;;;;6093146;23;102485;-73
2022/03/22 00:30:32;;;;;;;43.85;29.73;;;8.10;87.10;;;;;;6094766;23;99827;-73
2022/03/22 00:33:02;;;;;;;44.85;30.85;;;8.10;87.10;;;;;;6095177;23;98925;-73
2022/03/22 00:35:35;;;;;;;49.03;31.35;;;8.10;87.10;;;;;;6094147;23;98556;-73
2022/03/22 00:38:06;;;;;;;42.13;29.92;;;8.10;87.20;;;;;;6120901;23;99224;-73
2022/03/22 00:40:33;;;;;;;45.97;31.10;;;8.10;87.30;;;;;;6120667;23;99061;-73
2022/03/22 00:43:01;;;;;;;45.20;32.40;;;8.00;87.20;;;;;;6120705;23;98496;-73
2022/03/22 00:45:32;;;;;;;42.97;29.80;;;8.10;87.30;;;;;;6095068;23;97775;-73
2022/03/22 00:48:01;;;;;;;47.90;30.73;;;8.00;87.20;;;;;;6093706;23;101861;-73
2022/03/22 00:50:36;;;;;;;42.65;29.10;;;8.00;87.20;;;;;;6120883;23;99134;-73
2022/03/22 00:53:05;;;;;;;44.88;31.70;;;8.10;87.70;;;;;;6094431;23;99190;-73
2022/03/22 00:55:33;;;;;;;43.97;30.38;;;8.10;86.90;;;;;;6121105;23;98932;-73
2022/03/22 00:58:00;;;;;;;43.75;31.30;;;8.10;87.00;;;;;;6120227;23;99336;-73
2022/03/22 01:00:27;;;;;;;42.78;30.23;;;8.00;86.80;;;;;;6069373;23;101848;-73
2022/03/22 01:02:58;;;;;;;43.22;30.58;;;8.00;86.70;;;;;;6120824;23;98458;-73
2022/03/22 01:05:27;;;;;;;50.30;31.70;;;8.00;86.60;;;;;;6095115;23;98809;-73
2022/03/22 01:07:57;;;;;;;44.65;31.77;;;8.00;87.00;;;;;;6094227;23;99218;-73
2022/03/22 01:10:26;;;;;;;42.95;29.30;;;8.00;87.00;;;;;;6069085;23;102647;-73
2022/03/22 01:12:54;;;;;;;40.00;29.23;;;8.00;86.80;;;;;;6120600;23;98390;-73
2022/03/22 01:15:24;;;;;;;42.95;30.13;;;8.00;86.80;;;;;;6120810;23;98609;-73
2022/03/22 01:17:56;;;;;;;44.60;29.42;;;7.90;87.00;;;;;;6119764;23;99968;-73
2022/03/22 01:20:26;;;;;;;42.55;29.42;;;7.80;87.10;;;;;;6120345;23;99783;-73
2022/03/22 01:22:54;;;;;;;48.47;30.23;;;7.80;87.40;;;;;;6120426;23;98473;-73
2022/03/22 01:25:24;;;;;;;48.92;32.13;;;7.80;87.30;;;;;;6120796;23;99340;-73
2022/03/22 01:27:51;;;;;;;42.97;29.85;;;7.80;87.40;;;;;;6119982;23;99271;-73
2022/03/22 01:30:20;;;;;;;45.00;30.60;;;7.70;87.40;;;;;;6120227;23;98967;-73
2022/03/22 01:32:50;;;;;;;47.72;31.38;;;7.80;87.50;;;;;;6093624;23;98555;-73
2022/03/22 01:35:25;;;;;;;47.00;30.87;;;7.70;87.30;;;;;;6094757;23;97666;-73
2022/03/22 01:37:53;;;;;;;45.75;30.63;;;7.70;87.20;;;;;;6093779;23;99154;-73
2022/03/22 01:40:23;;;;;;;41.65;29.98;;;7.70;87.50;;;;;;6120355;23;99102;-73
2022/03/22 01:42:51;;;;;;;44.50;30.63;;;7.70;87.60;;;;;;6119582;23;99243;-73
2022/03/22 01:45:18;;;;;;;44.60;31.30;;;7.70;87.20;;;;;;6094248;23;98508;-73
2022/03/22 01:47:47;;;;;;;42.10;30.13;;;7.70;87.00;;;;;;6093279;23;99223;-73
2022/03/22 01:50:16;;;;;;;41.00;30.23;;;7.70;86.70;;;;;;6093577;23;101450;-73
2022/03/22 01:52:44;;;;;;;43.28;29.48;;;7.80;86.50;;;;;;6120611;23;98439;-73
2022/03/22 01:55:17;;;;;;;44.33;29.58;;;7.70;86.40;;;;;;6120534;23;98480;-73
2022/03/22 01:57:45;;;;;;;42.70;29.47;;;7.80;86.20;;;;;;6093998;23;99233;-73
2022/03/22 02:00:17;;;;;;;41.72;29.65;;;7.80;86.10;;;;;;6094413;23;98959;-73
2022/03/22 02:05:56;;;;;;;41.97;29.77;;;7.80;85.70;;;;;;6093906;23;98642;-73
2022/03/22 02:08:29;;;;;;;42.88;29.33;;;7.80;85.50;;;;;;6119490;23;99965;-73
2022/03/22 02:10:59;;;;;;;42.58;30.42;;;7.70;85.50;;;;;;6119560;23;99537;-73
2022/03/22 02:13:29;;;;;;;40.63;29.90;;;7.80;85.50;;;;;;6120257;23;98571;-73
2022/03/22 02:15:59;;;;;;;43.53;27.98;;;7.80;85.50;;;;;;6093941;23;98861;-73
2022/03/22 02:18:27;;;;;;;37.28;27.77;;;7.80;85.20;;;;;;6093850;23;98596;-73
2022/03/22 02:20:55;;;;;;;39.90;28.17;;;7.80;85.30;;;;;;6092712;23;101523;-73
2022/03/22 02:23:49;;;;;;;42.28;28.63;;;7.80;85.30;;;;;;6095255;23;98446;-73
2022/03/22 02:26:21;;;;;;;44.33;29.30;;;7.80;85.20;;;;;;6095709;23;97806;-73
2022/03/22 02:28:53;;;;;;;41.33;27.83;;;7.80;85.00;;;;;;6121204;23;99359;-73
2022/03/22 02:31:25;;;;;;;40.13;28.27;;;7.70;84.60;;;;;;6121305;23;98977;-73
2022/03/22 02:33:53;;;;;;;40.72;27.13;;;7.80;84.30;;;;;;6120904;23;99136;-73
2022/03/22 02:36:20;;;;;;;36.53;27.02;;;7.80;83.60;;;;;;6071371;23;98436;-73
2022/03/22 02:38:48;;;;;;;44.45;28.40;;;7.80;83.00;;;;;;6094948;23;99204;-73
2022/03/22 02:41:18;;;;;;;40.95;28.02;;;7.80;82.60;;;;;;6120853;23;98979;-73
2022/03/22 02:43:48;;;;;;;43.95;29.13;;;7.90;82.60;;;;;;6095466;23;98867;-73
2022/03/22 02:46:15;;;;;;;37.53;27.20;;;7.80;82.60;;;;;;6121312;23;98513;-73
2022/03/22 02:48:43;;;;;;;41.55;28.83;;;7.80;82.50;;;;;;6094916;23;99221;-73
2022/03/22 02:51:11;;;;;;;41.63;29.92;;;7.80;82.30;;;;;;6070747;23;99129;-73
2022/03/22 02:53:38;;;;;;;37.95;28.13;;;7.80;82.30;;;;;;6094852;23;98524;-73
2022/03/22 02:56:06;;;;;;;40.20;27.70;;;7.80;82.30;;;;;;6094582;23;98635;-73
2022/03/22 02:58:33;;;;;;;43.25;30.42;;;7.80;82.20;;;;;;6070097;23;99969;-73
2022/03/22 03:01:01;;;;;;;42.28;28.33;;;7.80;82.10;;;;;;6094102;23;101116;-73
2022/03/22 03:03:28;;;;;;;40.88;28.73;;;7.80;82.00;;;;;;6094808;23;98536;-73
2022/03/22 03:05:55;;;;;;;40.08;26.58;;;7.80;81.80;;;;;;6121156;23;98528;-73
2022/03/22 03:08:26;;;;;;;41.85;27.63;;;7.80;81.50;;;;;;6094245;23;101725;-73
2022/03/22 03:10:54;;;;;;;39.70;28.38;;;7.80;81.30;;;;;;6094744;23;101438;-73
2022/03/22 03:13:21;;;;;;;36.60;27.23;;;7.80;81.00;;;;;;6121418;23;98438;-73
2022/03/22 03:15:50;;;;;;;39.70;26.75;;;7.80;81.00;;;;;;6095725;23;97775;-73
2022/03/22 03:18:19;;;;;;;37.25;26.13;;;7.90;80.90;;;;;;6093880;23;100425;-73
2022/03/22 03:20:46;;;;;;;41.30;27.48;;;7.90;80.70;;;;;;6095025;23;99284;-73
2022/03/22 03:23:13;;;;;;;35.58;25.27;;;7.90;80.50;;;;;;6120787;23;99175;-73
2022/03/22 03:25:40;;;;;;;39.95;28.10;;;7.90;80.30;;;;;;6095089;23;98531;-73
2022/03/22 03:28:09;;;;;;;39.38;26.30;;;7.90;80.20;;;;;;6093911;23;101735;-73
2022/03/22 03:30:36;;;;;;;39.08;26.10;;;7.90;80.20;;;;;;6120921;23;98996;-73
2022/03/22 03:33:03;;;;;;;40.22;28.13;;;7.90;80.20;;;;;;6120843;23;98513;-73
2022/03/22 03:35:31;;;;;;;37.55;26.85;;;7.90;80.20;;;;;;6095151;23;98484;-73
2022/03/22 03:37:58;;;;;;;37.85;27.75;;;7.90;80.20;;;;;;6121043;23;99141;-73
2022/03/22 03:41:53;;;;;;;41.83;26.90;;;7.90;80.00;;;;;;6095443;23;98947;-73
2022/03/22 03:43:12;;;;;;;36.97;25.95;;;7.90;80.00;;;;;;6099402;23;98452;-73
2022/03/22 03:48:25;;;;;;;40.08;25.92;;;7.90;79.80;;;;;;6120221;23;100040;-73
2022/03/22 03:50:52;;;;;;;40.25;27.08;;;7.90;79.80;;;;;;6120803;23;99689;-73
2022/03/22 03:53:19;;;;;;;37.72;26.77;;;7.80;79.70;;;;;;6121031;23;98584;-73
2022/03/22 03:55:46;;;;;;;40.20;27.05;;;7.90;79.80;;;;;;6095176;23;98559;-73
2022/03/22 03:58:13;;;;;;;41.75;27.52;;;7.90;79.70;;;;;;6094367;23;99255;-73
2022/03/22 04:00:40;;;;;;;39.47;28.08;;;7.80;79.70;;;;;;6094192;23;101960;-73
2022/03/22 04:03:07;;;;;;;36.80;26.98;;;7.80;79.80;;;;;;6093829;23;98484;-73
2022/03/22 04:05:34;;;;;;;37.47;27.38;;;7.80;79.70;;;;;;6070004;23;97914;-73
2022/03/22 04:08:01;;;;;;;35.30;26.08;;;7.80;79.80;;;;;;6094803;23;99138;-73
2022/03/22 04:10:28;;;;;;;35.17;26.95;;;7.80;79.80;;;;;;6070071;23;98758;-73
2022/03/22 04:12:55;;;;;;;46.65;28.10;;;7.80;79.80;;;;;;6094617;23;99229;-73
2022/03/22 04:15:23;;;;;;;40.40;26.98;;;7.70;79.80;;;;;;6094759;23;98580;-73
2022/03/22 04:17:50;;;;;;;39.88;27.80;;;7.70;79.80;;;;;;6095054;23;99290;-73
2022/03/22 04:20:21;;;;;;;38.67;27.67;;;7.70;80.00;;;;;;6069286;23;101559;-73
2022/03/22 04:22:48;;;;;;;37.85;28.20;;;7.70;80.10;;;;;;6094845;23;98530;-73
2022/03/22 04:25:15;;;;;;;40.92;27.67;;;7.70;80.10;;;;;;6094785;23;98548;-73
2022/03/22 04:33:15;;;;;;;39.33;27.77;;;7.60;80.10;;;;;;6121011;23;98776;-73
2022/03/22 04:35:42;;;;;;;39.03;27.42;;;7.60;80.00;;;;;;6070363;23;98553;-73
2022/03/22 04:38:09;;;;;;;36.33;26.38;;;7.60;80.00;;;;;;6093344;23;102481;-73
2022/03/22 04:40:39;;;;;;;39.65;26.83;;;7.60;80.20;;;;;;6120859;23;99622;-73
2022/03/22 04:43:06;;;;;;;38.53;27.50;;;7.60;80.20;;;;;;6121080;23;98374;-73
2022/03/22 04:45:35;;;;;;;43.70;29.10;;;7.60;80.20;;;;;;6120791;23;98446;-73
2022/03/22 04:48:03;;;;;;;37.35;26.02;;;7.60;80.30;;;;;;6069151;23;101985;-73
2022/03/22 04:50:30;;;;;;;39.28;25.88;;;7.60;80.40;;;;;;6120443;23;98981;-73
2022/03/22 04:58:18;;;;;;;41.70;26.17;;;7.60;80.60;;;;;;6071422;23;101941;-73
2022/03/22 05:00:46;;;;;;;39.08;26.90;;;7.50;80.60;;;;;;6120507;23;98959;-73
2022/03/22 05:03:13;;;;;;;38.05;27.13;;;7.60;80.70;;;;;;6094460;23;99204;-73
2022/03/22 05:08:26;;;;;;;42.08;28.00;;;7.50;80.70;;;;;;6120289;23;99117;-73
2022/03/22 05:10:55;;;;;;;38.72;28.23;;;7.50;80.60;;;;;;6120459;23;99052;-73
2022/03/22 05:13:22;;;;;;;41.58;28.75;;;7.50;80.50;;;;;;6094648;23;98505;-73
2022/03/22 05:15:51;;;;;;;38.28;28.23;;;7.50;80.50;;;;;;6121102;23;98454;-73
2022/03/22 05:18:20;;;;;;;43.60;27.73;;;7.50;80.60;;;;;;6094423;23;99214;-73
2022/03/22 05:20:47;;;;;;;42.13;27.35;;;7.50;80.80;;;;;;6120790;23;98950;-73
2022/03/22 05:23:16;;;;;;;39.13;27.40;;;7.50;80.80;;;;;;6094119;23;98852;-73
2022/03/22 05:25:43;;;;;;;39.78;28.33;;;7.50;80.60;;;;;;6120663;23;98490;-73
2022/03/22 05:28:11;;;;;;;46.67;27.90;;;7.50;81.30;;;;;;6093598;23;100050;-73
2022/03/22 05:30:38;;;;;;;39.83;27.67;;;7.50;80.80;;;;;;6094130;23;99863;-73
2022/03/22 05:33:05;;;;;;;41.17;27.73;;;7.50;80.80;;;;;;6070075;23;98533;-73
2022/03/22 05:35:33;;;;;;;38.53;26.13;;;7.50;80.80;;;;;;6093971;23;98501;-73
2022/03/22 05:38:01;;;;;;;39.60;28.52;;;7.50;80.80;;;;;;6093392;23;101838;-73
2022/03/22 05:40:29;;;;;;;41.45;28.10;;;7.50;80.80;;;;;;6070029;23;99094;-73
2022/03/22 05:42:56;;;;;;;36.13;26.70;;;7.50;80.70;;;;;;6093936;23;98448;-73
2022/03/22 05:45:25;;;;;;;40.60;27.35;;;7.50;80.70;;;;;;6069466;23;97912;-73
2022/03/22 05:47:53;;;;;;;40.25;28.30;;;7.50;80.80;;;;;;6093113;23;101851;-73
2022/03/22 05:50:21;;;;;;;38.78;27.00;;;7.50;80.80;;;;;;6119746;23;99051;-73
2022/03/22 05:52:49;;;;;;;38.22;26.92;;;7.50;80.80;;;;;;6120172;23;99680;-73
2022/03/22 05:55:17;;;;;;;39.28;27.55;;;7.50;80.90;;;;;;6069911;23;98546;-73
2022/03/22 05:57:44;;;;;;;39.38;27.20;;;7.50;81.00;;;;;;6119198;23;99148;-73
2022/03/22 06:00:12;;;;;;;40.05;28.45;;;7.50;81.00;;;;;;6094789;23;101924;-73
2022/03/22 06:02:40;;;;;;;39.55;27.20;;;7.60;81.00;;;;;;6121402;23;98470;-73
2022/03/22 06:05:11;;;;;;;42.20;28.60;;;7.60;81.00;;;;;;6094735;23;98994;-73
2022/03/22 06:07:39;;;;;;;38.13;27.45;;;7.60;80.90;;;;;;6120955;23;99472;-73
2022/03/22 06:10:08;;;;;;;37.67;26.45;;;7.70;81.00;;;;;;6121534;23;99019;-73
2022/03/22 06:12:44;;;;;;;41.58;28.35;;;7.70;80.80;;;;;;6095794;23;98497;-73
2022/03/22 06:15:16;;;;;;;39.13;27.15;;;7.80;80.70;;;;;;6095312;23;98568;-73
2022/03/22 06:17:46;;;;;;;36.30;27.70;;;7.90;80.70;;;;;;6069404;23;102807;-73
2022/03/22 06:20:14;;;;;;;42.78;27.55;;;7.90;80.70;;;;;;6095120;23;99710;-73
2022/03/22 06:22:41;;;;;;;36.65;26.75;;;8.00;80.60;;;;;;6121400;23;98550;-73
2022/03/22 06:25:09;;;;;;;35.78;26.63;;;8.10;80.30;;;;;;6094924;23;98962;-73
2022/03/22 06:27:36;;;;;;;35.08;26.02;;;8.10;80.10;;;;;;6120898;23;99231;-73
2022/03/22 06:30:06;;;;;;;40.08;27.52;;;8.20;80.00;;;;;;6094720;23;101862;-73
2022/03/22 06:32:43;;;;;;;40.72;27.83;;;8.30;80.00;;;;;;6095174;23;98607;-73
2022/03/22 06:35:18;;;;;;;40.20;26.92;;;8.40;79.70;;;;;;6122166;23;97792;-73
2022/03/22 06:37:46;;;;;;;39.47;28.58;;;8.50;79.50;;;;;;6121203;23;99237;-73
2022/03/22 06:40:15;;;;;;;39.47;27.90;;;8.60;79.30;;;;;;6095034;23;98905;-73
2022/03/22 06:42:43;;;;;;;38.33;27.88;;;8.80;79.10;;;;;;6094615;23;99272;-73
2022/03/22 06:45:12;;;;;;;38.35;26.52;;;9.00;78.60;;;;;;6121513;23;98838;-73
2022/03/22 06:47:40;;;;;;;37.50;28.52;;;9.20;78.70;;;;;;6093877;23;100383;-73
2022/03/22 06:50:09;;;;;;;36.47;26.60;;;9.40;77.40;;;;;;6094347;23;101543;-73
2022/03/22 06:52:37;;;;;;;41.85;27.00;;;9.70;77.10;;;;;;6094328;23;98482;-73
2022/03/22 06:55:05;;;;;;;37.15;26.23;;;9.90;76.50;;;;;;6070959;23;99281;-73
2022/03/22 06:57:33;;;;;;;37.72;26.08;;;10.10;76.00;;;;;;6120731;23;99187;-73
2022/03/22 07:00:01;;;;;;;35.13;26.65;;;10.30;75.40;;;;;;6121749;23;99129;-73
2022/03/22 07:02:28;;;;;;;33.50;26.30;;;10.40;74.80;;;;;;6121338;23;98494;-73
2022/03/22 07:04:55;;;;;;;35.78;26.73;;;10.60;74.60;;;;;;6094998;23;98500;-73
2022/03/22 07:07:23;;;;;;;37.05;27.33;;;10.70;74.10;;;;;;6120473;23;99875;-73
2022/03/22 07:09:50;;;;;;;38.58;26.55;;;10.90;73.80;;;;;;6093476;23;102265;-74
2022/03/22 07:12:17;;;;;;;33.20;25.65;;;11.00;73.40;;;;;;6094694;23;98494;-73
2022/03/22 07:14:44;;;;;;;36.28;25.50;;;11.10;73.30;;;;;;6121183;23;98525;-74
2022/03/22 07:17:11;;;;;;;36.03;26.45;;;11.20;72.80;;;;;;6120959;23;99150;-74
2022/03/22 07:19:39;;;;;;;34.72;26.70;;;11.40;72.50;;;;;;6094010;23;101565;-73
2022/03/22 07:22:08;;;;;;;34.58;26.27;;;11.40;72.00;;;;;;6121401;23;98382;-74
2022/03/22 07:24:35;;;;;;;32.88;26.20;;;11.50;71.30;;;;;;6117532;23;97713;-74
2022/03/22 07:27:02;;;;;;;34.35;26.83;;;11.70;71.30;;;;;;6094671;23;99236;-73
2022/03/22 07:29:29;;;;;;;31.27;25.98;;;11.90;71.00;;;;;;6094211;23;101568;-73
2022/03/22 07:31:59;;;;;;;31.17;25.73;;;12.10;70.10;;;;;;6070077;23;99214;-73
2022/03/22 07:34:27;;;;;;;33.65;25.60;;;12.30;69.70;;;;;;6095140;23;98554;-73
2022/03/22 07:36:54;;;;;;;32.85;26.02;;;12.50;68.90;;;;;;6118853;23;102017;-73
2022/03/22 07:39:23;;;;;;;36.25;27.27;;;12.80;68.60;;;;;;6120862;23;98972;-73
2022/03/22 07:41:50;;;;;;;30.38;25.98;;;13.10;68.10;;;;;;6070579;23;98541;-73
2022/03/22 07:44:17;;;;;;;31.75;25.63;;;13.40;67.50;;;;;;6121409;23;98498;-74
2022/03/22 07:46:45;;;;;;;30.65;27.20;;;13.70;66.80;;;;;;6069462;23;101700;-74
2022/03/22 07:54:46;;;;;;;32.45;28.65;;;14.60;64.10;;;;;;6098755;23;98587;-74
2022/03/22 07:57:13;;;;;;;30.75;26.48;;;14.90;63.30;;;;;;6069804;23;99985;-74
2022/03/22 07:59:40;;;;;;;30.17;26.75;;;15.10;62.50;;;;;;6120517;23;99685;-74
2022/03/22 08:02:07;;;;;;;30.75;27.58;;;15.40;62.60;;;;;;6070790;23;98435;-74
2022/03/22 08:04:35;;;;;;;30.30;27.23;;;15.70;61.90;;;;;;6120956;23;98873;-74
2022/03/22 08:07:02;;;;;;;30.63;27.58;;;16.00;61.20;;;;;;6120710;23;99227;-74
2022/03/22 08:09:29;;;;;;;31.00;27.80;;;16.30;60.30;;;;;;6094537;23;99016;-74
2022/03/22 08:11:56;;;;;;;32.50;28.42;;;16.60;59.80;;;;;;6069846;23;98495;-74
2022/03/22 08:14:23;;;;;;;32.20;29.00;;;16.90;59.00;;;;;;6121630;23;97719;-74
2022/03/22 08:16:50;;;;;;;32.05;28.85;;;17.20;58.10;;;;;;6120544;23;99128;-74
2022/03/22 08:19:18;;;;;;;45.70;30.50;;;17.40;57.20;;;;;;6093741;23;101768;-74
2022/03/22 08:21:48;;;;;;;36.55;28.90;;;17.70;56.60;;;;;;6094476;23;99663;-74
2022/03/22 08:24:15;;;;;;;32.65;29.02;;;18.00;55.70;;;;;;6121082;23;98541;-74
2022/03/22 08:26:43;;;;;;;33.28;28.70;;;18.20;54.90;;;;;;6069360;23;102041;-73
2022/03/22 08:29:10;;;;;;;33.47;30.02;;;18.50;54.20;;;;;;6120884;23;99044;-71
2022/03/22 08:31:43;;;;;;;31.92;28.52;;;18.70;53.30;;;;;;6095943;23;98571;-71
2022/03/22 08:34:12;;;;;;;28.85;25.80;;;18.80;51.90;;;;;;6095726;23;98494;-72
2022/03/22 08:36:40;;;;;;;30.20;24.58;;;18.80;52.60;;;;;;6093655;23;99205;-71
2022/03/22 08:39:07;;;;;;;29.98;25.40;;;18.80;51.20;;;;;;6069937;23;98895;-71
2022/03/22 08:41:34;;;;;;;29.08;24.88;;;18.90;50.90;;;;;;6094913;23;98529;-74
2022/03/22 08:44:02;;;;;;;27.15;24.13;;;18.80;50.50;;;;;;6094153;23;98455;-74
2022/03/22 08:46:29;;;;;;;26.77;23.88;;;18.70;50.80;;;;;;6119961;23;100032;-74
2022/03/22 08:48:57;;;;;;;28.88;25.85;;;18.60;50.40;;;;;;6069150;23;102440;-74
2022/03/22 08:51:24;;;;;;;29.65;25.48;;;18.40;50.80;;;;;;6094325;23;99022;-74
2022/03/22 08:53:54;;;;;;;27.15;24.38;;;18.20;51.00;;;;;;6120714;23;98354;-74
2022/03/22 08:56:24;;;;;;;29.02;25.05;;;18.10;50.90;;;;;;6120324;23;99038;-74
2022/03/22 08:58:54;;;;;;;31.45;24.08;;;17.80;51.30;;;;;;6093508;23;101567;-74
2022/03/22 09:01:24;;;;;;;33.20;26.65;;;17.70;52.30;;;;;;6120947;23;98473;-74
2022/03/22 09:06:07;;;;;;;31.05;26.40;;;17.60;52.80;;;;;;6095726;23;97718;-74
2022/03/22 09:06:39;;;;;;;30.63;23.25;;;17.30;53.50;;;;;;6120423;23;99310;-74
2022/03/22 09:09:09;;;;;;;31.00;24.27;;;17.10;53.60;;;;;;6094357;23;99168;-74
2022/03/22 09:11:37;;;;;;;31.42;24.48;;;16.90;54.00;;;;;;6095129;23;99233;-74
2022/03/22 09:14:05;;;;;;;36.70;26.20;;;16.90;54.90;;;;;;6094357;23;98497;-74
2022/03/22 09:16:32;;;;;;;27.38;22.73;;;16.80;54.60;;;;;;6120629;23;99163;-74
2022/03/22 09:18:59;;;;;;;30.27;23.42;;;16.80;55.00;;;;;;6093428;23;101797;-74
2022/03/22 09:21:27;;;;;;;29.48;24.38;;;16.80;55.00;;;;;;6069774;23;98455;-74
2022/03/22 09:23:54;;;;;;;27.55;22.75;;;16.80;54.60;;;;;;6094422;23;98647;-74
2022/03/22 09:26:21;;;;;;;29.52;23.52;;;16.70;54.60;;;;;;6093741;23;99343;-74
2022/03/22 09:28:52;;;;;;;31.55;24.63;;;16.70;55.00;;;;;;6120519;23;98775;-74
2022/03/22 09:31:22;;;;;;;29.05;21.70;;;16.70;54.90;;;;;;6069850;23;98544;-74
2022/03/22 09:33:54;;;;;;;29.90;23.65;;;16.70;55.30;;;;;;6095145;23;98494;-74
2022/03/22 09:36:21;;;;;;;31.15;23.50;;;16.80;55.60;;;;;;6120959;23;99985;-74
2022/03/22 09:38:48;;;;;;;28.42;23.73;;;16.80;54.70;;;;;;6095106;23;99775;-74
2022/03/22 09:41:16;;;;;;;26.70;22.17;;;16.70;54.90;;;;;;6095726;23;98911;-74
2022/03/22 09:43:47;;;;;;;30.15;23.35;;;16.80;55.00;;;;;;6071400;23;98498;-74
2022/03/22 09:46:19;;;;;;;29.25;23.20;;;16.90;55.50;;;;;;6121296;23;99150;-74
2022/03/22 09:48:57;;;;;;;26.80;22.27;;;17.00;55.80;;;;;;6120580;23;99009;-74
2022/03/22 09:54:19;;;;;;;30.55;24.30;;;17.00;55.60;;;;;;6122052;23;97665;-74
2022/03/22 09:56:47;;;;;;;29.35;23.35;;;17.10;55.50;;;;;;6121317;23;99190;-74
2022/03/22 09:59:20;;;;;;;35.15;25.38;;;17.00;55.70;;;;;;6095161;23;99012;-74
2022/03/22 10:01:48;;;;;;;29.00;24.00;;;17.00;56.30;;;;;;6095385;23;99191;-74
2022/03/22 10:04:15;;;;;;;29.17;23.08;;;17.00;55.90;;;;;;6095370;23;98615;-74
2022/03/22 10:06:50;;;;;;;28.45;22.92;;;17.10;56.40;;;;;;6094948;23;99192;-74
2022/03/22 10:09:28;;;;;;;32.15;24.45;;;17.10;56.40;;;;;;6094534;23;101580;-74
2022/03/22 10:11:55;;;;;;;30.10;21.83;;;17.10;55.90;;;;;;6070625;23;98441;-74
2022/03/22 10:14:39;;;;;;;29.02;24.42;;;17.10;57.30;;;;;;6121815;23;98459;-74
2022/03/22 10:17:17;;;;;;;;;;;17.10;56.30;;;;;;6095171;23;101949;-74
2022/03/22 10:19:50;;;;;;;28.75;22.33;;;17.00;56.30;;;;;;6097482;23;101081;-74
2022/03/22 10:22:23;;;;;;;28.73;22.60;;;17.10;56.70;;;;;;6071074;23;98567;-74
2022/03/22 10:24:52;;;;;;;;;;;17.30;56.80;;;;;;6122478;23;99260;-74
2022/03/22 10:27:26;;;;;;;28.52;21.23;;;17.20;54.10;;;;;;6122745;23;99880;-74
2022/03/22 10:30:17;;;;;;;25.80;20.75;;;17.30;54.70;;;;;;6094323;23;102321;-74
2022/03/22 10:32:50;;;;;;;28.48;23.50;;;17.40;54.90;;;;;;6121636;23;98379;-74
2022/03/22 10:35:20;;;;;;;30.17;23.23;;;17.60;54.60;;;;;;6121979;23;98446;-74
2022/03/22 10:37:59;;;;;;;26.08;21.80;;;17.70;53.20;;;;;;6121180;23;99264;-74
2022/03/22 10:40:27;;;;;;;33.53;23.05;;;17.80;53.70;;;;;;6121211;23;98887;-74
2022/03/22 10:43:00;;;;;;;28.38;21.50;;;17.90;53.10;;;;;;6121291;23;98878;-74
2022/03/22 10:45:28;;;;;;;26.98;22.67;;;18.00;52.60;;;;;;6122111;23;97742;-74
2022/03/22 10:47:57;;;;;;;31.50;23.27;;;18.10;52.90;;;;;;6069872;23;100423;-74
2022/03/22 10:50:24;;;;;;;29.40;22.90;;;18.10;52.30;;;;;;6070272;23;101687;-74
2022/03/22 10:52:57;;;;;;;29.92;21.75;;;18.20;51.60;;;;;;6121039;23;99199;-74
2022/03/22 10:55:27;;;;;;;30.38;24.15;;;18.30;53.00;;;;;;6070756;23;98663;-74
2022/03/22 10:57:57;;;;;;;28.77;20.80;;;18.40;52.20;;;;;;6070490;23;101792;-74
2022/03/22 11:00:25;;;;;;;29.48;22.17;;;18.40;51.60;;;;;;6120994;23;98955;-74
2022/03/22 11:02:55;;;;;;;31.05;22.40;;;18.40;51.80;;;;;;6121484;23;98525;-74
2022/03/22 11:05:24;;;;;;;30.83;23.20;;;18.50;51.90;;;;;;6094641;23;98561;-75
2022/03/22 11:07:52;;;;;;;27.50;21.25;;;18.60;52.10;;;;;;6121090;23;99039;-74
2022/03/22 11:10:30;;;;;;;28.88;22.92;;;18.60;52.00;;;;;;6094962;23;99022;-74
2022/03/22 11:12:59;;;;;;;28.02;23.35;;;18.70;51.40;;;;;;6121262;23;98407;-75
2022/03/22 11:15:33;;;;;;;31.90;22.23;;;18.70;51.40;;;;;;6095446;23;98565;-74
2022/03/22 11:18:01;;;;;;;30.50;22.55;;;18.80;50.60;;;;;;6120610;23;99901;-74
2022/03/22 11:20:29;;;;;;;30.65;22.77;;;18.70;50.30;;;;;;6069735;23;102756;-74
2022/03/22 11:22:57;;;;;;;30.65;22.38;;;18.70;50.20;;;;;;6095473;23;98439;-74
2022/03/22 11:25:36;;;;;;;29.88;22.52;;;18.70;50.70;;;;;;6094585;23;98501;-74
2022/03/22 11:28:04;;;;;;;30.52;22.60;;;18.80;51.60;;;;;;6094748;23;99352;-76
2022/03/22 11:30:33;;;;;;;30.85;22.58;;;18.80;51.10;;;;;;6069993;23;101500;-76
2022/03/22 11:36:14;;;;;;;27.30;21.02;;;19.00;50.80;;;;;;6095277;23;97787;-76
2022/03/22 11:38:52;;;;;;;31.02;23.85;;;19.20;50.60;;;;;;6117235;23;99205;-75
2022/03/22 11:44:22;;;;;;;30.38;22.00;;;19.20;49.50;;;;;;6120635;23;99107;-76
2022/03/22 11:47:03;;;;;;;27.27;21.17;;;19.30;48.60;;;;;;6094875;23;98485;-76
2022/03/22 11:49:31;;;;;;;30.80;22.60;;;19.40;49.20;;;;;;6069934;23;100517;-76
2022/03/22 11:52:19;;;;;;;30.88;23.35;;;19.40;49.90;;;;;;6120755;23;99318;-75
2022/03/22 11:54:53;;;;;;;29.55;22.98;;;19.50;48.90;;;;;;6120761;23;98502;-76
2022/03/22 11:57:20;;;;;;;29.52;23.00;;;19.60;48.00;;;;;;6094904;23;98514;-75
2022/03/22 11:59:52;;;;;;;29.23;21.88;;;19.60;47.60;;;;;;6070306;23;99318;-75
2022/03/22 12:02:28;;;;;;;30.17;22.63;;;19.60;47.10;;;;;;6121164;23;98989;-75
2022/03/22 12:05:01;;;;;;;32.28;22.58;;;19.70;47.60;;;;;;6096418;23;98525;-75
2022/03/22 12:07:31;;;;;;;30.98;23.77;;;19.60;47.10;;;;;;6094298;23;98589;-76
2022/03/22 12:10:08;;;;;;;32.97;22.52;;;19.70;46.90;;;;;;6120141;23;103403;-75
2022/03/22 12:12:37;;;;;;;31.25;23.70;;;19.70;47.40;;;;;;6120728;23;99569;-76
2022/03/22 12:15:11;;;;;;;30.17;21.85;;;19.70;46.70;;;;;;6070797;23;98474;-75
2022/03/22 12:17:38;;;;;;;27.67;21.35;;;19.80;47.50;;;;;;6070332;23;98946;-75
2022/03/22 12:20:09;;;;;;;29.63;22.60;;;19.80;48.20;;;;;;6120291;23;99283;-76
2022/03/22 12:22:43;;;;;;;31.45;21.67;;;19.90;47.70;;;;;;6094402;23;99050;-76
2022/03/22 12:25:12;;;;;;;32.72;24.05;;;20.10;47.50;;;;;;6094655;23;98550;-76
2022/03/22 12:28:03;;;;;;;31.63;21.98;;;20.10;46.70;;;;;;6121345;23;97744;-76
2022/03/22 12:30:33;;;;;;;31.00;23.40;;;20.20;46.30;;;;;;6093937;23;102024;-76
2022/03/22 12:33:10;;;;;;;30.60;21.85;;;20.20;46.50;;;;;;6120711;23;99104;-76
2022/03/22 12:35:39;;;;;;;32.00;21.85;;;20.20;46.90;;;;;;6069600;23;99242;-76
2022/03/22 12:38:06;;;;;;;31.30;21.42;;;20.20;45.80;;;;;;6095040;23;98586;-75
2022/03/22 12:40:34;;;;;;;30.27;21.85;;;20.30;46.30;;;;;;6094166;23;105894;-76
2022/03/22 12:43:01;;;;;;;32.22;22.67;;;20.30;45.60;;;;;;6120619;23;99672;-76
2022/03/22 12:45:32;;;;;;;30.70;23.02;;;20.30;45.80;;;;;;6094670;23;98790;-75
2022/03/22 12:48:00;;;;;;;34.70;22.98;;;20.30;45.40;;;;;;6094330;23;98663;-76
2022/03/22 12:50:28;;;;;;;28.13;22.58;;;20.40;46.60;;;;;;6120314;23;99076;-76
2022/03/22 12:52:56;;;;;;;31.23;22.55;;;20.40;46.00;;;;;;6094192;23;102016;-76
2022/03/22 12:55:26;;;;;;;31.63;22.50;;;20.50;46.00;;;;;;6070161;23;98486;-76
2022/03/22 12:57:56;;;;;;;31.75;23.25;;;20.50;45.80;;;;;;6094212;23;98577;-73
2022/03/22 13:00:34;;;;;;;35.97;24.17;;;20.50;45.80;;;;;;6119898;23;100074;-73
2022/03/22 13:03:19;;;;;;;33.08;24.38;;;20.60;45.10;;;;;;6094427;23;99697;-73
2022/03/22 13:05:48;;;;;;;30.77;22.80;;;20.60;44.80;;;;;;6094611;23;98453;-73
2022/03/22 13:08:20;;;;;;;30.80;23.23;;;20.60;44.80;;;;;;6120795;23;98444;-76
2022/03/22 13:16:27;;;;;;;28.80;21.38;;;20.50;44.60;;;;;;6094016;23;98472;-76
2022/03/22 13:18:58;;;;;;;28.83;20.15;;;20.50;44.80;;;;;;6070010;23;97847;-76
2022/03/22 13:21:27;;;;;;;29.85;22.73;;;20.60;45.40;;;;;;6120024;23;100709;-76